Time;durP1;ratioP1;P1;durP2;ratioP2;P2;SDS_P1;SDS_P2;PMS_P1;PMS_P2;Temp;Humidity;BMP_temperature;BMP_pressure;BME280_temperature;BME280_humidity;BME280_pressure;Samples;Min_cycle;Max_cycle;Signal;HPM_P1;HPM_P2
2023/05/05 00:01:24;;;;;;;9.13;3.53;;;13.10;87.10;;;;;;5036931;28;20511;-48
2023/05/05 00:03:51;;;;;;;9.70;3.70;;;13.10;87.30;;;;;;5054282;28;20408;-49
2023/05/05 00:06:19;;;;;;;6.00;4.07;;;12.40;86.60;;;;;;5054881;28;20426;-49
2023/05/05 00:08:46;;;;;;;9.27;3.83;;;13.00;87.50;;;;;;5054416;28;20436;-49
2023/05/05 00:11:12;;;;;;;7.57;3.50;;;12.80;87.50;;;;;;5054601;28;20438;-49
2023/05/05 00:13:39;;;;;;;10.80;3.30;;;13.00;88.00;;;;;;5054959;28;20400;-49
2023/05/05 00:16:06;;;;;;;8.43;3.70;;;12.90;88.00;;;;;;5054631;28;20416;-49
2023/05/05 00:18:32;;;;;;;10.80;4.00;;;12.70;87.80;;;;;;5054409;28;20436;-49
2023/05/05 00:20:59;;;;;;;8.50;4.53;;;12.80;88.10;;;;;;5054671;28;20978;-49
2023/05/05 00:23:27;;;;;;;6.33;3.47;;;12.90;88.10;;;;;;5054630;28;20425;-48
2023/05/05 00:25:54;;;;;;;8.20;4.20;;;12.60;88.10;;;;;;5054619;28;20407;-49
2023/05/05 00:28:20;;;;;;;9.27;3.37;;;12.50;88.00;;;;;;5054086;28;20436;-49
2023/05/05 00:30:47;;;;;;;9.73;3.90;;;12.60;88.20;;;;;;5054270;28;20498;-49
2023/05/05 00:33:14;;;;;;;7.77;3.83;;;12.60;88.30;;;;;;5036555;28;20554;-49
2023/05/05 00:35:41;;;;;;;6.43;3.80;;;12.90;88.80;;;;;;5054376;28;20435;-49
2023/05/05 00:38:07;;;;;;;6.77;3.50;;;12.60;88.50;;;;;;5053940;28;20478;-50
2023/05/05 00:40:36;;;;;;;7.37;3.53;;;12.70;88.50;;;;;;5035924;28;20460;-49
2023/05/05 00:43:04;;;;;;;12.13;4.07;;;12.60;88.60;;;;;;5036547;28;20459;-49
2023/05/05 00:45:31;;;;;;;6.40;3.70;;;12.50;88.60;;;;;;5054116;28;20434;-49
2023/05/05 00:47:59;;;;;;;7.50;3.83;;;13.10;89.20;;;;;;5036086;28;20451;-49
2023/05/05 00:50:28;;;;;;;6.50;3.93;;;12.80;88.80;;;;;;5035829;28;20489;-49
2023/05/05 00:52:58;;;;;;;9.87;3.70;;;12.60;88.60;;;;;;5054439;28;20456;-48
2023/05/05 00:55:25;;;;;;;6.40;4.00;;;12.60;88.40;;;;;;5054034;28;20941;-49
2023/05/05 00:57:53;;;;;;;8.23;3.77;;;12.60;88.50;;;;;;5053705;28;20445;-49
2023/05/05 01:00:20;;;;;;;7.33;3.50;;;12.50;88.30;;;;;;5035677;28;20429;-49
2023/05/05 01:02:46;;;;;;;7.77;4.30;;;12.40;88.20;;;;;;5036244;28;20451;-49
2023/05/05 01:05:15;;;;;;;8.47;3.70;;;12.80;88.70;;;;;;5054104;28;20441;-49
2023/05/05 01:07:55;;;;;;;9.70;3.50;;;12.80;88.80;;;;;;5053878;28;20431;-49
2023/05/05 01:10:30;;;;;;;8.63;3.43;;;12.50;88.60;;;;;;5055708;28;20411;-49
2023/05/05 01:13:14;;;;;;;10.43;4.00;;;12.60;88.90;;;;;;5057674;28;20475;-49
2023/05/05 01:15:47;;;;;;;6.73;3.87;;;12.80;89.10;;;;;;5036059;28;20485;-49
2023/05/05 01:18:23;;;;;;;9.33;3.77;;;12.10;88.40;;;;;;5035680;28;20473;-49
2023/05/05 01:20:57;;;;;;;7.50;3.63;;;12.30;88.80;;;;;;5036512;28;20438;-48
2023/05/05 01:23:47;;;;;;;9.10;3.90;;;12.40;88.90;;;;;;5036164;28;21149;-48
2023/05/05 01:26:43;;;;;;;7.67;4.20;;;12.40;89.20;;;;;;5036166;28;20762;-49
2023/05/05 01:29:34;;;;;;;8.43;3.63;;;12.40;89.30;;;;;;5055518;28;20454;-49
2023/05/05 01:32:05;;;;;;;6.00;3.60;;;12.30;89.10;;;;;;5038192;28;20516;-49
2023/05/05 01:34:36;;;;;;;7.90;4.13;;;12.50;89.40;;;;;;5039034;28;20417;-49
2023/05/05 01:37:09;;;;;;;10.17;4.60;;;12.40;89.40;;;;;;5056108;28;20460;-49
2023/05/05 01:39:38;;;;;;;10.47;4.03;;;12.20;89.40;;;;;;5055813;28;20443;-49
2023/05/05 01:42:08;;;;;;;8.60;3.30;;;12.20;89.50;;;;;;5036664;28;20769;-49
2023/05/05 01:44:37;;;;;;;7.80;4.07;;;12.50;90.00;;;;;;5055746;28;20421;-49
2023/05/05 01:47:07;;;;;;;6.63;4.13;;;12.20;89.90;;;;;;5037372;28;20472;-49
2023/05/05 01:49:36;;;;;;;8.10;4.27;;;12.00;89.70;;;;;;5053999;28;20417;-49
2023/05/05 01:52:04;;;;;;;5.30;3.57;;;12.20;90.00;;;;;;5052708;28;20440;-49
2023/05/05 01:54:33;;;;;;;9.60;3.70;;;12.10;90.10;;;;;;5036134;28;20979;-49
2023/05/05 01:57:03;;;;;;;7.20;3.40;;;12.50;90.40;;;;;;5076997;22;20491;-48
2023/05/05 01:59:32;;;;;;;5.70;3.67;;;12.40;90.40;;;;;;5052337;28;20946;-49
2023/05/05 02:02:01;;;;;;;5.83;3.43;;;11.90;90.10;;;;;;5034751;28;20963;-49
2023/05/05 02:04:31;;;;;;;9.33;3.80;;;12.30;90.50;;;;;;5034661;28;20452;-49
2023/05/05 02:06:59;;;;;;;9.23;4.30;;;11.90;90.40;;;;;;5034523;28;20470;-49
2023/05/05 02:09:29;;;;;;;7.03;4.10;;;12.20;90.50;;;;;;5034272;28;20440;-49
2023/05/05 02:11:57;;;;;;;6.97;3.73;;;12.30;90.70;;;;;;5052229;28;20418;-50
2023/05/05 02:14:28;;;;;;;5.57;3.97;;;11.70;90.50;;;;;;5034414;28;20433;-49
2023/05/05 02:16:57;;;;;;;8.90;3.77;;;11.30;90.40;;;;;;5052211;28;20425;-50
2023/05/05 02:19:31;;;;;;;9.20;3.40;;;11.90;90.90;;;;;;5034081;28;20448;-49
2023/05/05 02:21:58;;;;;;;8.80;3.37;;;11.50;90.80;;;;;;5052472;28;20506;-49
2023/05/05 02:24:25;;;;;;;5.50;3.73;;;12.00;91.00;;;;;;5034449;28;20433;-48
2023/05/05 02:26:53;;;;;;;5.93;3.80;;;11.60;90.80;;;;;;5034207;28;20471;-50
2023/05/05 02:29:24;;;;;;;9.73;4.07;;;11.60;90.80;;;;;;5051749;28;20493;-49
2023/05/05 02:31:55;;;;;;;7.97;3.30;;;11.60;90.90;;;;;;5034176;28;20960;-48
2023/05/05 02:34:27;;;;;;;11.07;4.47;;;11.80;91.10;;;;;;5034173;28;20426;-48
2023/05/05 02:37:00;;;;;;;4.57;3.67;;;11.70;91.00;;;;;;5034066;28;20475;-48
2023/05/05 02:39:35;;;;;;;11.23;3.97;;;11.30;90.90;;;;;;5033921;28;20981;-48
2023/05/05 02:42:10;;;;;;;11.27;4.30;;;11.50;91.10;;;;;;5034000;28;20996;-47
2023/05/05 02:44:41;;;;;;;5.10;4.07;;;11.50;91.10;;;;;;5051868;28;20422;-49
2023/05/05 02:47:08;;;;;;;5.40;3.57;;;11.80;91.30;;;;;;5033869;28;20477;-49
2023/05/05 02:49:35;;;;;;;5.40;3.53;;;11.80;91.40;;;;;;5034001;28;20421;-49
2023/05/05 02:52:03;;;;;;;7.73;3.70;;;12.00;91.50;;;;;;5034080;28;20926;-50
2023/05/05 02:54:34;;;;;;;6.60;3.93;;;11.60;91.40;;;;;;5034073;28;20776;-49
2023/05/05 02:57:04;;;;;;;9.80;4.40;;;11.70;91.50;;;;;;5034041;28;20465;-50
2023/05/05 02:59:40;;;;;;;9.10;4.83;;;11.70;91.50;;;;;;5033577;28;20943;-49
2023/05/05 03:02:17;;;;;;;10.73;4.20;;;11.90;91.70;;;;;;5033908;28;20824;-49
2023/05/05 03:04:49;;;;;;;5.83;4.50;;;11.30;91.50;;;;;;5055793;28;20440;-48
2023/05/05 03:07:25;;;;;;;13.03;4.40;;;11.40;91.60;;;;;;5037804;28;20459;-49
2023/05/05 03:09:57;;;;;;;6.00;4.13;;;11.30;91.60;;;;;;5037541;28;20447;-48
2023/05/05 03:12:33;;;;;;;5.53;4.20;;;11.50;91.60;;;;;;5037803;28;20460;-49
2023/05/05 03:15:14;;;;;;;8.10;4.80;;;11.50;91.70;;;;;;5037592;28;20439;-49
2023/05/05 03:17:42;;;;;;;11.40;4.63;;;10.90;91.50;;;;;;5055617;28;20543;-49
2023/05/05 03:20:11;;;;;;;7.87;4.03;;;11.40;91.70;;;;;;5037353;28;20425;-49
2023/05/05 03:22:43;;;;;;;9.50;4.60;;;11.40;91.80;;;;;;5037674;28;20855;-48
2023/05/05 03:25:12;;;;;;;8.33;4.30;;;11.80;92.10;;;;;;5037726;28;20450;-49
2023/05/05 03:27:40;;;;;;;5.23;3.87;;;11.40;92.00;;;;;;5037599;28;20477;-48
2023/05/05 03:30:08;;;;;;;11.50;4.40;;;11.10;91.70;;;;;;5037431;28;20541;-49
2023/05/05 03:32:39;;;;;;;8.90;3.53;;;11.30;91.80;;;;;;5037627;28;20528;-48
2023/05/05 03:35:07;;;;;;;10.17;4.27;;;11.30;91.90;;;;;;5055526;28;20486;-48
2023/05/05 03:37:34;;;;;;;7.73;4.10;;;11.30;92.10;;;;;;5037202;28;20467;-49
2023/05/05 03:40:02;;;;;;;8.40;3.87;;;11.30;92.10;;;;;;5036866;28;21008;-48
2023/05/05 03:42:30;;;;;;;8.60;4.60;;;11.40;92.10;;;;;;5037226;28;20509;-48
2023/05/05 03:44:57;;;;;;;8.00;4.50;;;11.50;92.10;;;;;;5037152;28;20479;-48
2023/05/05 03:47:24;;;;;;;9.33;4.80;;;11.40;92.30;;;;;;5037043;28;20470;-48
2023/05/05 03:49:52;;;;;;;10.90;4.43;;;11.40;92.30;;;;;;5037001;28;20426;-48
2023/05/05 03:52:19;;;;;;;7.20;3.93;;;11.70;92.40;;;;;;5036896;28;20417;-49
2023/05/05 03:54:46;;;;;;;7.10;4.20;;;11.40;92.30;;;;;;5037101;28;20464;-49
2023/05/05 03:57:14;;;;;;;5.67;3.60;;;11.10;92.10;;;;;;5036810;28;20481;-49
2023/05/05 03:59:41;;;;;;;8.73;4.50;;;11.10;92.10;;;;;;5036949;28;20479;-49
2023/05/05 04:02:07;;;;;;;5.90;3.60;;;11.10;92.10;;;;;;5054967;28;20849;-48
2023/05/05 04:04:34;;;;;;;8.97;4.40;;;10.70;92.00;;;;;;5036635;28;20543;-49
2023/05/05 04:07:01;;;;;;;8.60;4.00;;;11.40;92.30;;;;;;5036778;28;20611;-49
2023/05/05 04:09:28;;;;;;;8.13;3.83;;;11.80;92.60;;;;;;5054182;28;20406;-49
2023/05/05 04:11:54;;;;;;;7.83;4.47;;;11.20;92.30;;;;;;5036576;28;20537;-49
2023/05/05 04:14:23;;;;;;;8.53;4.00;;;11.70;92.60;;;;;;5035710;28;20483;-49
2023/05/05 04:16:50;;;;;;;6.33;3.90;;;10.80;92.10;;;;;;5036622;28;20490;-49
2023/05/05 04:19:17;;;;;;;8.33;4.50;;;11.70;92.40;;;;;;5036296;28;20446;-49
2023/05/05 04:21:44;;;;;;;8.70;4.30;;;11.30;92.20;;;;;;5036784;28;20424;-49
2023/05/05 04:24:11;;;;;;;7.80;5.07;;;10.80;92.10;;;;;;5036750;28;20418;-49
2023/05/05 04:26:38;;;;;;;10.40;4.37;;;11.60;92.40;;;;;;5036753;28;20443;-48
2023/05/05 04:29:04;;;;;;;11.70;4.37;;;11.30;92.30;;;;;;5036067;28;20425;-49
2023/05/05 04:31:33;;;;;;;12.67;5.70;;;11.30;92.20;;;;;;5036569;28;20421;-49
2023/05/05 04:33:59;;;;;;;9.00;4.00;;;11.00;91.90;;;;;;5036417;28;20480;-48
2023/05/05 04:36:27;;;;;;;10.20;4.97;;;12.00;92.10;;;;;;5036310;28;20527;-49
2023/05/05 04:38:54;;;;;;;10.07;5.17;;;11.70;91.60;;;;;;5035929;28;20435;-49
2023/05/05 04:41:21;;;;;;;9.90;5.20;;;12.10;91.50;;;;;;5054055;28;20956;-50
2023/05/05 04:43:47;;;;;;;15.27;4.87;;;12.10;91.20;;;;;;5053815;28;20441;-48
2023/05/05 04:46:15;;;;;;;11.33;5.30;;;12.20;91.00;;;;;;5036256;28;20434;-49
2023/05/05 04:48:43;;;;;;;16.33;5.13;;;12.20;90.80;;;;;;5035585;28;20484;-48
2023/05/05 04:51:11;;;;;;;9.83;4.60;;;12.20;90.70;;;;;;5036101;28;20458;-50
2023/05/05 04:53:38;;;;;;;15.00;5.63;;;12.30;90.60;;;;;;5053682;28;20495;-49
2023/05/05 04:56:05;;;;;;;12.00;5.10;;;12.50;90.70;;;;;;5053783;28;20432;-50
2023/05/05 04:58:32;;;;;;;12.40;4.10;;;12.20;90.40;;;;;;5053182;28;20560;-50
2023/05/05 05:00:58;;;;;;;8.33;4.43;;;12.20;90.40;;;;;;5036054;28;20872;-49
2023/05/05 05:03:25;;;;;;;7.87;4.50;;;12.10;90.40;;;;;;5053462;28;20431;-50
2023/05/05 05:05:54;;;;;;;14.13;5.50;;;12.60;90.60;;;;;;5053304;28;20952;-49
2023/05/05 05:08:21;;;;;;;7.50;4.87;;;11.90;90.10;;;;;;5053455;28;20555;-49
2023/05/05 05:10:48;;;;;;;8.20;4.80;;;12.40;90.30;;;;;;5035437;28;20478;-50
2023/05/05 05:13:14;;;;;;;13.63;5.20;;;11.90;90.00;;;;;;5053155;28;20477;-50
2023/05/05 05:15:41;;;;;;;8.90;5.10;;;12.70;90.20;;;;;;5035236;28;20557;-50
2023/05/05 05:18:08;;;;;;;10.80;6.40;;;12.80;90.10;;;;;;5034781;28;20478;-50
2023/05/05 05:20:35;;;;;;;12.30;5.47;;;13.10;90.10;;;;;;5035127;28;20419;-49
2023/05/05 05:23:03;;;;;;;9.90;5.10;;;12.90;89.50;;;;;;5035257;28;20455;-48
2023/05/05 05:25:32;;;;;;;8.37;5.03;;;12.60;88.80;;;;;;5035079;28;20449;-49
2023/05/05 05:27:58;;;;;;;10.00;5.73;;;13.40;89.20;;;;;;5034825;28;20473;-48
2023/05/05 05:30:26;;;;;;;13.73;5.93;;;13.30;88.80;;;;;;5052323;28;20414;-50
2023/05/05 05:32:53;;;;;;;6.83;5.03;;;13.20;88.10;;;;;;5034704;28;20473;-50
2023/05/05 05:35:20;;;;;;;13.50;4.80;;;13.30;88.60;;;;;;5034433;28;20449;-49
2023/05/05 05:37:48;;;;;;;14.00;5.83;;;13.00;87.20;;;;;;5034707;28;20509;-51
2023/05/05 05:40:17;;;;;;;19.40;5.43;;;13.20;87.10;;;;;;5034235;28;20841;-49
2023/05/05 05:42:43;;;;;;;12.17;5.90;;;13.20;86.40;;;;;;5034405;28;20446;-51
2023/05/05 05:45:10;;;;;;;7.40;5.03;;;13.30;85.60;;;;;;5034681;28;20431;-47
2023/05/05 05:47:38;;;;;;;9.67;4.73;;;13.70;85.70;;;;;;5033933;28;20565;-52
2023/05/05 05:50:06;;;;;;;7.80;5.07;;;13.70;84.70;;;;;;5033732;28;20939;-49
2023/05/05 05:52:34;;;;;;;11.80;5.70;;;13.80;84.10;;;;;;5034064;28;20510;-50
2023/05/05 05:55:01;;;;;;;7.77;4.80;;;14.30;83.70;;;;;;5052304;28;20463;-50
2023/05/05 05:57:30;;;;;;;17.07;5.40;;;14.30;83.50;;;;;;5033244;28;20563;-51
2023/05/05 05:59:56;;;;;;;10.20;5.00;;;14.10;82.50;;;;;;5051856;28;20877;-50
2023/05/05 06:02:25;;;;;;;11.70;5.20;;;14.20;81.80;;;;;;5033745;28;20449;-49
2023/05/05 06:04:52;;;;;;;11.27;4.50;;;14.80;81.80;;;;;;5034223;28;20450;-49
2023/05/05 06:07:19;;;;;;;13.43;5.67;;;14.40;80.50;;;;;;5034012;28;20500;-50
2023/05/05 06:09:46;;;;;;;10.67;5.70;;;14.70;80.10;;;;;;5033948;28;20450;-49
2023/05/05 06:12:13;;;;;;;15.10;4.57;;;14.70;79.50;;;;;;5034036;28;20442;-49
2023/05/05 06:14:41;;;;;;;10.27;5.30;;;14.90;79.10;;;;;;5051772;28;20485;-48
2023/05/05 06:17:08;;;;;;;13.60;4.80;;;14.90;78.60;;;;;;5034166;28;21050;-50
2023/05/05 06:19:38;;;;;;;11.50;6.10;;;14.30;78.10;;;;;;5033903;28;21006;-49
2023/05/05 06:22:05;;;;;;;12.10;5.60;;;14.40;77.70;;;;;;5034386;28;20551;-49
2023/05/05 06:24:32;;;;;;;12.30;5.27;;;14.50;77.60;;;;;;5033880;28;20449;-49
2023/05/05 06:26:59;;;;;;;10.80;5.20;;;14.30;77.00;;;;;;5033635;28;20484;-49
2023/05/05 06:29:26;;;;;;;9.10;4.50;;;14.70;77.20;;;;;;5033477;28;20439;-49
2023/05/05 06:31:54;;;;;;;11.33;5.30;;;14.70;77.00;;;;;;5051624;28;20488;-51
2023/05/05 06:34:21;;;;;;;13.03;5.63;;;14.70;77.30;;;;;;5051585;28;20471;-49
2023/05/05 06:36:48;;;;;;;14.17;5.70;;;14.70;77.10;;;;;;5051387;28;20454;-49
2023/05/05 06:39:14;;;;;;;10.47;5.13;;;14.50;77.20;;;;;;5050756;28;20439;-49
2023/05/05 06:41:41;;;;;;;9.43;5.20;;;14.50;77.40;;;;;;5051643;28;20959;-50
2023/05/05 06:44:09;;;;;;;8.63;4.90;;;14.70;77.50;;;;;;5051093;28;20439;-50
2023/05/05 06:46:36;;;;;;;11.77;5.80;;;14.60;77.00;;;;;;5051382;28;20492;-50
2023/05/05 06:49:04;;;;;;;13.67;5.50;;;14.90;77.00;;;;;;5050987;28;20815;-50
2023/05/05 06:51:31;;;;;;;11.43;5.47;;;14.90;76.40;;;;;;5051739;28;20439;-50
2023/05/05 06:53:58;;;;;;;12.90;5.33;;;14.50;76.00;;;;;;5051180;28;20645;-50
2023/05/05 06:56:24;;;;;;;8.40;4.90;;;14.70;76.00;;;;;;5051163;28;20802;-50
2023/05/05 06:58:51;;;;;;;14.87;6.00;;;15.00;76.60;;;;;;5050860;28;20928;-50
2023/05/05 07:01:17;;;;;;;11.60;5.87;;;15.10;76.40;;;;;;5051292;28;20470;-50
2023/05/05 07:03:44;;;;;;;7.10;4.53;;;14.80;75.80;;;;;;5051451;28;20954;-49
2023/05/05 07:06:12;;;;;;;14.20;5.13;;;14.60;75.40;;;;;;5051348;28;20449;-50
2023/05/05 07:08:39;;;;;;;11.93;5.50;;;14.70;75.60;;;;;;5050632;28;20452;-49
2023/05/05 07:11:06;;;;;;;10.40;5.30;;;14.50;75.30;;;;;;5051308;28;20405;-50
2023/05/05 07:13:32;;;;;;;12.67;5.70;;;15.10;76.10;;;;;;5051356;28;20449;-50
2023/05/05 07:15:59;;;;;;;11.33;4.73;;;14.90;75.60;;;;;;5051357;28;20412;-50
2023/05/05 07:18:26;;;;;;;12.73;6.13;;;15.30;75.70;;;;;;5051203;28;20455;-50
2023/05/05 07:20:53;;;;;;;12.27;5.53;;;15.20;75.40;;;;;;5051208;28;20450;-50
2023/05/05 07:23:21;;;;;;;10.80;5.70;;;15.20;75.40;;;;;;5032942;28;20466;-49
2023/05/05 07:25:48;;;;;;;13.77;5.20;;;15.10;75.50;;;;;;5033365;28;20806;-49
2023/05/05 07:28:15;;;;;;;17.70;5.37;;;14.90;75.20;;;;;;5050406;28;20557;-51
2023/05/05 07:30:41;;;;;;;18.67;5.20;;;15.00;75.60;;;;;;5050977;28;20526;-50
2023/05/05 07:33:08;;;;;;;12.00;4.60;;;15.10;75.70;;;;;;5050937;28;20453;-49
2023/05/05 07:35:35;;;;;;;17.17;5.70;;;14.80;75.10;;;;;;5051135;28;20522;-50
2023/05/05 07:38:02;;;;;;;9.60;4.97;;;14.90;75.40;;;;;;5050971;28;20473;-50
2023/05/05 07:40:32;;;;;;;11.87;5.23;;;15.10;75.50;;;;;;5050597;28;20433;-50
2023/05/05 07:43:00;;;;;;;11.23;4.70;;;15.30;75.70;;;;;;5033739;28;20451;-50
2023/05/05 07:45:27;;;;;;;11.67;5.67;;;15.40;75.90;;;;;;5051560;28;20412;-50
2023/05/05 07:47:54;;;;;;;7.60;4.73;;;15.30;75.90;;;;;;5051392;28;20458;-47
2023/05/05 07:50:21;;;;;;;9.57;4.60;;;15.30;75.90;;;;;;5053076;28;20466;-48
2023/05/05 07:52:48;;;;;;;10.50;5.43;;;15.50;75.70;;;;;;5055440;28;20442;-50
2023/05/05 07:55:14;;;;;;;12.33;5.40;;;14.90;75.10;;;;;;5055323;28;20478;-49
2023/05/05 07:57:42;;;;;;;8.40;5.07;;;15.30;75.80;;;;;;5069229;22;20504;-50
2023/05/05 08:00:12;;;;;;;10.83;5.33;;;15.10;75.70;;;;;;5054275;28;20930;-49
2023/05/05 08:02:38;;;;;;;20.77;5.63;;;15.20;75.70;;;;;;5054743;28;20534;-49
2023/05/05 08:05:06;;;;;;;8.23;5.40;;;15.30;76.00;;;;;;5054502;28;20786;-49
2023/05/05 08:07:32;;;;;;;8.60;5.47;;;15.20;76.20;;;;;;5054439;28;20789;-51
2023/05/05 08:09:59;;;;;;;14.73;5.27;;;15.20;76.10;;;;;;5054357;28;20469;-50
2023/05/05 08:12:26;;;;;;;11.40;5.40;;;15.30;76.50;;;;;;5054344;28;20434;-49
2023/05/05 08:14:54;;;;;;;12.47;4.73;;;15.10;76.00;;;;;;5054492;28;20477;-51
2023/05/05 08:17:20;;;;;;;11.30;5.83;;;14.80;75.90;;;;;;5054488;28;20766;-51
2023/05/05 08:19:47;;;;;;;9.87;5.10;;;15.00;76.30;;;;;;5053951;28;20413;-51
2023/05/05 08:22:13;;;;;;;10.40;5.37;;;15.20;76.40;;;;;;5054030;28;20740;-51
2023/05/05 08:24:40;;;;;;;7.27;5.67;;;14.90;76.30;;;;;;5054015;28;20434;-51
2023/05/05 08:27:07;;;;;;;8.23;5.60;;;15.30;75.80;;;;;;5053778;28;20431;-51
2023/05/05 08:29:33;;;;;;;11.90;5.60;;;15.30;75.60;;;;;;5053956;28;20438;-50
2023/05/05 08:32:01;;;;;;;11.50;5.90;;;15.20;75.30;;;;;;5053909;28;20426;-50
2023/05/05 08:34:28;;;;;;;11.07;4.90;;;15.20;75.20;;;;;;5053687;28;20478;-50
2023/05/05 08:36:55;;;;;;;10.63;6.30;;;15.50;74.90;;;;;;5054166;28;20434;-51
2023/05/05 08:39:21;;;;;;;9.67;4.63;;;15.40;74.10;;;;;;5053793;28;20512;-50
2023/05/05 08:41:49;;;;;;;9.23;5.40;;;15.70;74.50;;;;;;5051885;28;20458;-50
2023/05/05 08:44:15;;;;;;;15.80;6.10;;;15.80;74.40;;;;;;5049513;28;20433;-50
2023/05/05 08:46:43;;;;;;;8.57;5.80;;;15.40;73.60;;;;;;5053136;28;20421;-51
2023/05/05 08:49:15;;;;;;;12.30;5.40;;;16.10;73.60;;;;;;5053111;28;20475;-51
2023/05/05 08:51:44;;;;;;;10.00;6.37;;;15.80;73.40;;;;;;5053250;28;20412;-50
2023/05/05 08:54:16;;;;;;;9.67;4.87;;;16.10;74.10;;;;;;5053429;28;20424;-50
2023/05/05 08:56:45;;;;;;;16.40;6.00;;;16.00;73.50;;;;;;5053633;28;20430;-50
2023/05/05 08:59:14;;;;;;;10.03;5.20;;;16.10;73.40;;;;;;5052604;28;20479;-51
2023/05/05 09:01:41;;;;;;;6.63;5.10;;;16.20;73.50;;;;;;5053205;28;20874;-51
2023/05/05 09:04:09;;;;;;;8.40;5.60;;;16.00;72.70;;;;;;5052854;28;20444;-50
2023/05/05 09:06:37;;;;;;;10.57;5.83;;;16.50;73.30;;;;;;5052723;28;20445;-50
2023/05/05 09:09:04;;;;;;;7.73;5.40;;;16.50;72.70;;;;;;5052424;28;20461;-49
2023/05/05 09:11:32;;;;;;;8.60;5.73;;;16.60;72.60;;;;;;5052994;28;20439;-49
2023/05/05 09:14:00;;;;;;;15.57;6.37;;;16.40;71.90;;;;;;5053178;28;20948;-51
2023/05/05 09:16:27;;;;;;;12.53;5.50;;;16.80;72.10;;;;;;5052363;28;20562;-50
2023/05/05 09:19:02;;;;;;;11.87;5.57;;;16.90;72.20;;;;;;5050894;28;20457;-50
2023/05/05 09:21:28;;;;;;;7.20;5.03;;;16.90;72.70;;;;;;5045431;28;20818;-51
2023/05/05 09:24:08;;;;;;;13.30;7.53;;;17.30;72.90;;;;;;5047224;28;20523;-49
2023/05/05 09:26:36;;;;;;;6.40;5.13;;;17.00;72.70;;;;;;5051143;28;20406;-51
2023/05/05 09:29:03;;;;;;;7.57;5.07;;;17.00;73.10;;;;;;5052085;28;20466;-50
2023/05/05 09:31:30;;;;;;;9.97;4.87;;;16.60;73.00;;;;;;5057222;28;20463;-50
2023/05/05 09:33:59;;;;;;;13.03;5.13;;;17.10;73.60;;;;;;5051270;28;20778;-49
2023/05/05 09:36:42;;;;;;;12.20;5.27;;;17.40;73.80;;;;;;5052916;28;20467;-50
2023/05/05 09:39:10;;;;;;;8.13;4.60;;;17.20;73.40;;;;;;5049749;28;20872;-50
2023/05/05 09:41:37;;;;;;;13.40;4.77;;;17.20;72.30;;;;;;5044126;28;20473;-50
2023/05/05 09:44:05;;;;;;;10.23;6.53;;;17.20;72.10;;;;;;5052313;28;20463;-50
2023/05/05 09:46:31;;;;;;;9.30;4.57;;;17.20;71.90;;;;;;5051868;28;20941;-51
2023/05/05 09:49:12;;;;;;;8.73;4.97;;;17.50;71.80;;;;;;5049405;28;20475;-50
2023/05/05 09:51:38;;;;;;;12.13;5.60;;;17.40;71.80;;;;;;5035509;28;20745;-50
2023/05/05 09:54:05;;;;;;;10.00;4.40;;;16.90;71.30;;;;;;5052267;28;20415;-50
2023/05/05 09:56:40;;;;;;;7.00;4.80;;;17.50;71.90;;;;;;5051964;28;20562;-49
2023/05/05 09:59:10;;;;;;;7.50;4.73;;;17.50;71.90;;;;;;5050167;28;20498;-49
2023/05/05 10:01:38;;;;;;;11.77;4.77;;;17.30;71.10;;;;;;5045016;28;21045;-50
2023/05/05 10:04:05;;;;;;;7.93;4.20;;;17.40;71.50;;;;;;5046390;28;20473;-50
2023/05/05 10:06:45;;;;;;;10.27;5.20;;;17.50;69.90;;;;;;5058665;28;20467;-50
2023/05/05 10:09:12;;;;;;;7.40;4.33;;;17.80;68.70;;;;;;5050293;28;20629;-50
2023/05/05 10:11:42;;;;;;;6.90;4.33;;;17.70;69.20;;;;;;5051589;28;20499;-49
2023/05/05 10:14:12;;;;;;;9.13;4.63;;;17.80;69.30;;;;;;5050685;28;20773;-51
2023/05/05 10:16:45;;;;;;;7.10;4.37;;;17.60;68.90;;;;;;5051408;28;20488;-50
2023/05/05 10:19:15;;;;;;;9.67;4.90;;;18.10;68.90;;;;;;5031753;28;20454;-51
2023/05/05 10:21:47;;;;;;;6.83;4.50;;;18.20;68.40;;;;;;5040952;28;20548;-51
2023/05/05 10:24:17;;;;;;;13.17;5.20;;;18.50;68.40;;;;;;5051877;28;20539;-50
2023/05/05 10:26:46;;;;;;;7.37;5.20;;;18.60;67.90;;;;;;5051417;28;20667;-50
2023/05/05 10:29:22;;;;;;;6.50;4.50;;;18.20;66.70;;;;;;5050599;28;20805;-51
2023/05/05 10:31:53;;;;;;;7.57;3.83;;;18.70;67.00;;;;;;5052053;28;20435;-51
2023/05/05 10:34:28;;;;;;;9.20;4.90;;;18.80;66.50;;;;;;5049339;28;20959;-50
2023/05/05 10:36:59;;;;;;;8.30;4.83;;;18.80;65.80;;;;;;5036012;28;20822;-51
2023/05/05 10:39:26;;;;;;;21.60;5.23;;;18.80;66.20;;;;;;5046781;28;20442;-50
2023/05/05 10:41:54;;;;;;;7.50;5.07;;;19.00;65.60;;;;;;5051635;28;20502;-50
2023/05/05 10:44:22;;;;;;;6.27;4.10;;;19.10;65.60;;;;;;5051291;28;20481;-50
2023/05/05 10:46:49;;;;;;;8.53;4.77;;;18.70;65.00;;;;;;5051570;28;20438;-50
2023/05/05 10:49:23;;;;;;;10.80;5.07;;;18.90;64.90;;;;;;5034040;28;20447;-51
2023/05/05 10:51:57;;;;;;;13.03;5.40;;;18.70;63.50;;;;;;5046791;28;20465;-51
2023/05/05 10:54:30;;;;;;;7.90;4.90;;;19.00;64.60;;;;;;5051609;28;20446;-51
2023/05/05 10:57:01;;;;;;;12.10;3.90;;;18.70;64.80;;;;;;5051136;28;20531;-50
2023/05/05 10:59:41;;;;;;;8.50;5.00;;;18.90;65.00;;;;;;5053834;28;20442;-49
2023/05/05 11:02:22;;;;;;;8.67;4.83;;;19.00;64.70;;;;;;5051714;28;20416;-49
2023/05/05 11:05:11;;;;;;;8.97;4.57;;;18.80;64.10;;;;;;5051270;28;20454;-50
2023/05/05 11:07:38;;;;;;;9.10;4.80;;;18.70;64.40;;;;;;5035966;28;20824;-51
2023/05/05 11:10:06;;;;;;;5.97;4.00;;;18.60;64.50;;;;;;5041994;28;20448;-50
2023/05/05 11:13:12;;;;;;;18.80;4.43;;;18.80;64.70;;;;;;5043481;28;20446;-50
2023/05/05 11:15:40;;;;;;;7.50;4.63;;;18.70;64.40;;;;;;5034740;28;20546;-50
2023/05/05 11:18:07;;;;;;;5.00;4.00;;;18.80;64.40;;;;;;5051019;28;20441;-50
2023/05/05 11:21:07;;;;;;;13.00;4.43;;;18.90;64.30;;;;;;5052167;28;20441;-50
2023/05/05 11:23:34;;;;;;;9.57;4.70;;;18.90;63.60;;;;;;5049952;28;20934;-50
2023/05/05 11:26:01;;;;;;;8.10;4.90;;;18.70;63.30;;;;;;5054651;28;20438;-50
2023/05/05 11:28:31;;;;;;;6.20;4.37;;;18.90;63.30;;;;;;5052428;28;20477;-50
2023/05/05 11:31:17;;;;;;;8.40;4.23;;;19.00;62.90;;;;;;5052513;28;20445;-50
2023/05/05 11:33:44;;;;;;;5.47;3.93;;;19.30;62.40;;;;;;5038250;28;20442;-50
2023/05/05 11:36:12;;;;;;;9.23;4.80;;;19.10;61.60;;;;;;5052451;28;20518;-50
2023/05/05 11:38:52;;;;;;;5.90;4.03;;;19.10;61.70;;;;;;5052599;28;20458;-51
2023/05/05 11:41:27;;;;;;;7.27;3.83;;;19.30;61.50;;;;;;5052875;28;20930;-50
2023/05/05 11:44:10;;;;;;;6.43;3.90;;;19.10;61.40;;;;;;5053142;28;20970;-50
2023/05/05 11:46:40;;;;;;;5.83;3.80;;;19.20;61.90;;;;;;5052782;28;20444;-50
2023/05/05 11:49:07;;;;;;;10.00;4.40;;;19.80;62.30;;;;;;5053624;28;20514;-51
2023/05/05 11:51:34;;;;;;;5.97;4.20;;;19.40;61.50;;;;;;5054883;28;20462;-50
2023/05/05 11:54:01;;;;;;;10.10;4.27;;;19.90;60.90;;;;;;5052972;28;20439;-51
2023/05/05 11:56:27;;;;;;;5.60;3.77;;;19.80;60.70;;;;;;5054071;28;20492;-51
2023/05/05 11:59:09;;;;;;;7.87;4.20;;;20.10;60.90;;;;;;5053890;28;20474;-50
2023/05/05 12:01:40;;;;;;;7.03;3.50;;;19.70;59.60;;;;;;5054667;28;20439;-51
2023/05/05 12:04:06;;;;;;;5.57;3.90;;;19.50;59.80;;;;;;5054412;28;20848;-50
2023/05/05 12:06:33;;;;;;;13.37;4.00;;;19.90;60.40;;;;;;5055412;28;20439;-50
2023/05/05 12:09:00;;;;;;;10.20;3.70;;;19.50;59.90;;;;;;5054073;28;20431;-51
2023/05/05 12:11:27;;;;;;;6.67;3.70;;;20.10;59.50;;;;;;5054358;28;20547;-50
2023/05/05 12:14:09;;;;;;;9.17;4.27;;;19.70;59.00;;;;;;5054113;28;20439;-50
2023/05/05 12:16:36;;;;;;;9.90;4.07;;;19.90;58.30;;;;;;5054935;28;20520;-50
2023/05/05 12:19:05;;;;;;;5.30;3.40;;;19.90;58.30;;;;;;5054303;28;20583;-51
2023/05/05 12:21:32;;;;;;;6.63;4.10;;;20.00;58.70;;;;;;5040215;28;20439;-51
2023/05/05 12:23:58;;;;;;;10.30;3.67;;;20.00;58.80;;;;;;5053510;28;20802;-50
2023/05/05 12:26:26;;;;;;;8.80;4.03;;;20.10;59.30;;;;;;5051486;28;20582;-50
2023/05/05 12:28:53;;;;;;;6.77;3.70;;;19.70;59.10;;;;;;5051965;28;20792;-51
2023/05/05 12:31:22;;;;;;;7.50;4.30;;;20.00;59.70;;;;;;5055517;28;20451;-50
2023/05/05 12:33:48;;;;;;;12.90;3.93;;;19.80;60.00;;;;;;5053546;28;20437;-51
2023/05/05 12:36:15;;;;;;;8.03;3.77;;;19.90;60.00;;;;;;5052888;28;20490;-51
2023/05/05 12:38:42;;;;;;;6.40;3.70;;;19.90;60.00;;;;;;5053158;28;20475;-51
2023/05/05 12:41:09;;;;;;;7.23;3.30;;;19.60;60.00;;;;;;5052160;28;20539;-50
2023/05/05 12:43:37;;;;;;;13.63;4.03;;;19.80;60.50;;;;;;5053309;28;20495;-51
2023/05/05 12:46:06;;;;;;;7.97;4.00;;;19.70;60.40;;;;;;5053471;28;20494;-51
2023/05/05 12:48:36;;;;;;;6.77;3.47;;;19.30;60.20;;;;;;5045368;28;20448;-51
2023/05/05 12:51:18;;;;;;;6.93;3.53;;;19.50;60.90;;;;;;5052907;28;20530;-50
2023/05/05 12:53:45;;;;;;;6.17;4.57;;;19.80;61.80;;;;;;5038659;28;20459;-50